sensor_id;sensor_type;location;lat;lon;timestamp;temperature;humidity
16968;DHT22;64862;54.398;10.126;2023-07-13T00:05:01;17.20;74.40
16968;DHT22;64862;54.398;10.126;2023-07-13T00:15:10;17.20;74.20
16968;DHT22;64862;54.398;10.126;2023-07-13T00:25:13;17.20;73.90
16968;DHT22;64862;54.398;10.126;2023-07-13T00:35:17;17.10;73.90
16968;DHT22;64862;54.398;10.126;2023-07-13T00:56:03;16.90;73.70
16968;DHT22;64862;54.398;10.126;2023-07-13T01:06:06;17.00;74.40
16968;DHT22;64862;54.398;10.126;2023-07-13T01:16:17;17.00;74.50
16968;DHT22;64862;54.398;10.126;2023-07-13T01:26:22;16.90;74.30
16968;DHT22;64862;54.398;10.126;2023-07-13T01:36:24;16.80;74.60
16968;DHT22;64862;54.398;10.126;2023-07-13T01:46:28;16.70;75.00
16968;DHT22;64862;54.398;10.126;2023-07-13T01:56:30;16.70;75.20
16968;DHT22;64862;54.398;10.126;2023-07-13T02:06:34;16.70;75.10
16968;DHT22;64862;54.398;10.126;2023-07-13T02:16:36;16.70;75.20
16968;DHT22;64862;54.398;10.126;2023-07-13T02:26:39;16.70;75.00
16968;DHT22;64862;54.398;10.126;2023-07-13T02:36:42;16.70;74.90
16968;DHT22;64862;54.398;10.126;2023-07-13T02:46:45;16.60;75.40
16968;DHT22;64862;54.398;10.126;2023-07-13T02:56:48;16.50;75.90
16968;DHT22;64862;54.398;10.126;2023-07-13T03:06:53;16.60;76.10
16968;DHT22;64862;54.398;10.126;2023-07-13T03:17:02;16.50;76.30
16968;DHT22;64862;54.398;10.126;2023-07-13T03:27:09;16.60;76.90
16968;DHT22;64862;54.398;10.126;2023-07-13T03:37:15;16.60;77.40
16968;DHT22;64862;54.398;10.126;2023-07-13T03:47:19;16.60;77.90
16968;DHT22;64862;54.398;10.126;2023-07-13T03:57:22;16.60;77.90
16968;DHT22;64862;54.398;10.126;2023-07-13T04:07:26;16.70;78.00
16968;DHT22;64862;54.398;10.126;2023-07-13T04:17:28;16.70;77.70
16968;DHT22;64862;54.398;10.126;2023-07-13T04:27:31;16.80;78.00
16968;DHT22;64862;54.398;10.126;2023-07-13T04:37:33;16.70;77.80
16968;DHT22;64862;54.398;10.126;2023-07-13T04:47:37;16.70;77.70
16968;DHT22;64862;54.398;10.126;2023-07-13T04:57:40;17.00;77.30
16968;DHT22;64862;54.398;10.126;2023-07-13T05:07:43;17.20;76.70
16968;DHT22;64862;54.398;10.126;2023-07-13T05:17:45;17.40;76.10
16968;DHT22;64862;54.398;10.126;2023-07-13T05:27:48;17.60;75.60
16968;DHT22;64862;54.398;10.126;2023-07-13T05:37:50;17.70;74.80
16968;DHT22;64862;54.398;10.126;2023-07-13T05:47:54;17.70;74.10
16968;DHT22;64862;54.398;10.126;2023-07-13T05:57:56;17.60;74.90
16968;DHT22;64862;54.398;10.126;2023-07-13T06:08:00;17.70;74.90
16968;DHT22;64862;54.398;10.126;2023-07-13T06:18:02;17.90;74.70
16968;DHT22;64862;54.398;10.126;2023-07-13T06:28:06;18.10;73.80
16968;DHT22;64862;54.398;10.126;2023-07-13T06:38:08;18.10;73.40
16968;DHT22;64862;54.398;10.126;2023-07-13T06:48:12;18.00;73.90
16968;DHT22;64862;54.398;10.126;2023-07-13T06:58:15;17.90;73.90
16968;DHT22;64862;54.398;10.126;2023-07-13T07:08:20;18.00;74.60
16968;DHT22;64862;54.398;10.126;2023-07-13T07:18:22;18.20;73.90
16968;DHT22;64862;54.398;10.126;2023-07-13T07:28:25;18.40;73.50
16968;DHT22;64862;54.398;10.126;2023-07-13T07:38:29;18.50;72.20
16968;DHT22;64862;54.398;10.126;2023-07-13T07:48:32;18.70;71.00
16968;DHT22;64862;54.398;10.126;2023-07-13T07:58:34;19.10;71.00
16968;DHT22;64862;54.398;10.126;2023-07-13T08:08:38;19.00;73.20
16968;DHT22;64862;54.398;10.126;2023-07-13T08:18:40;18.40;76.70
16968;DHT22;64862;54.398;10.126;2023-07-13T08:28:43;17.90;77.80
16968;DHT22;64862;54.398;10.126;2023-07-13T08:38:46;17.80;79.20
16968;DHT22;64862;54.398;10.126;2023-07-13T08:48:52;18.30;77.80
16968;DHT22;64862;54.398;10.126;2023-07-13T08:58:55;18.60;77.40
16968;DHT22;64862;54.398;10.126;2023-07-13T09:09:03;17.90;78.50
16968;DHT22;64862;54.398;10.126;2023-07-13T09:19:11;17.60;78.40
16968;DHT22;64862;54.398;10.126;2023-07-13T09:29:23;17.60;78.50
16968;DHT22;64862;54.398;10.126;2023-07-13T09:39:31;17.80;80.30
16968;DHT22;64862;54.398;10.126;2023-07-13T09:49:37;18.20;79.50
16968;DHT22;64862;54.398;10.126;2023-07-13T09:59:41;18.80;80.20
16968;DHT22;64862;54.398;10.126;2023-07-13T10:09:47;19.50;76.80
16968;DHT22;64862;54.398;10.126;2023-07-13T10:19:49;19.90;73.10
16968;DHT22;64862;54.398;10.126;2023-07-13T10:29:58;19.60;71.90
16968;DHT22;64862;54.398;10.126;2023-07-13T10:40:02;19.30;70.30
16968;DHT22;64862;54.398;10.126;2023-07-13T10:50:09;19.10;65.00
16968;DHT22;64862;54.398;10.126;2023-07-13T11:00:18;19.30;63.40
16968;DHT22;64862;54.398;10.126;2023-07-13T11:10:53;19.40;62.90
16968;DHT22;64862;54.398;10.126;2023-07-13T11:21:14;19.50;63.20
16968;DHT22;64862;54.398;10.126;2023-07-13T11:31:20;19.70;64.60
16968;DHT22;64862;54.398;10.126;2023-07-13T11:41:27;20.00;63.20
16968;DHT22;64862;54.398;10.126;2023-07-13T11:51:35;20.20;58.20
16968;DHT22;64862;54.398;10.126;2023-07-13T12:01:43;20.10;59.00
16968;DHT22;64862;54.398;10.126;2023-07-13T12:11:47;20.00;58.50
16968;DHT22;64862;54.398;10.126;2023-07-13T12:21:52;20.40;55.40
16968;DHT22;64862;54.398;10.126;2023-07-13T12:32:00;20.60;55.10
16968;DHT22;64862;54.398;10.126;2023-07-13T12:42:19;20.90;55.00
16968;DHT22;64862;54.398;10.126;2023-07-13T12:52:30;20.80;54.50
16968;DHT22;64862;54.398;10.126;2023-07-13T13:02:34;21.00;54.60
16968;DHT22;64862;54.398;10.126;2023-07-13T13:12:38;20.90;57.30
16968;DHT22;64862;54.398;10.126;2023-07-13T13:22:43;20.70;54.50
16968;DHT22;64862;54.398;10.126;2023-07-13T13:32:47;20.30;55.20
16968;DHT22;64862;54.398;10.126;2023-07-13T13:42:50;19.90;58.00
16968;DHT22;64862;54.398;10.126;2023-07-13T13:52:57;20.00;60.40
16968;DHT22;64862;54.398;10.126;2023-07-13T14:03:00;20.20;61.00
16968;DHT22;64862;54.398;10.126;2023-07-13T14:13:03;20.30;60.30
16968;DHT22;64862;54.398;10.126;2023-07-13T14:23:09;20.10;60.40
16968;DHT22;64862;54.398;10.126;2023-07-13T14:33:12;20.10;60.80
16968;DHT22;64862;54.398;10.126;2023-07-13T14:43:16;20.10;60.90
16968;DHT22;64862;54.398;10.126;2023-07-13T14:53:20;20.00;61.30
16968;DHT22;64862;54.398;10.126;2023-07-13T15:03:24;20.30;60.50
16968;DHT22;64862;54.398;10.126;2023-07-13T15:13:29;20.20;60.70
16968;DHT22;64862;54.398;10.126;2023-07-13T15:23:31;20.20;60.50
16968;DHT22;64862;54.398;10.126;2023-07-13T15:33:34;20.30;59.70
16968;DHT22;64862;54.398;10.126;2023-07-13T15:43:38;20.30;59.40
16968;DHT22;64862;54.398;10.126;2023-07-13T15:53:41;20.10;60.30
16968;DHT22;64862;54.398;10.126;2023-07-13T16:03:45;20.40;59.00
16968;DHT22;64862;54.398;10.126;2023-07-13T16:13:49;20.60;55.70
16968;DHT22;64862;54.398;10.126;2023-07-13T16:23:56;20.40;57.20
16968;DHT22;64862;54.398;10.126;2023-07-13T16:34:00;20.50;57.10
16968;DHT22;64862;54.398;10.126;2023-07-13T16:44:08;20.20;59.00
16968;DHT22;64862;54.398;10.126;2023-07-13T16:54:13;20.20;58.60
16968;DHT22;64862;54.398;10.126;2023-07-13T17:04:19;20.20;59.80
16968;DHT22;64862;54.398;10.126;2023-07-13T17:14:24;20.00;59.60
16968;DHT22;64862;54.398;10.126;2023-07-13T17:24:33;20.20;60.00
16968;DHT22;64862;54.398;10.126;2023-07-13T17:34:37;20.90;58.50
16968;DHT22;64862;54.398;10.126;2023-07-13T17:44:45;20.60;58.80
16968;DHT22;64862;54.398;10.126;2023-07-13T17:54:49;19.90;60.70
16968;DHT22;64862;54.398;10.126;2023-07-13T18:04:51;19.40;70.30
16968;DHT22;64862;54.398;10.126;2023-07-13T18:14:55;19.10;74.30
16968;DHT22;64862;54.398;10.126;2023-07-13T18:24:57;18.70;72.50
16968;DHT22;64862;54.398;10.126;2023-07-13T18:35:00;18.70;72.70
16968;DHT22;64862;54.398;10.126;2023-07-13T18:45:04;18.60;73.60
16968;DHT22;64862;54.398;10.126;2023-07-13T18:55:18;18.40;72.60
16968;DHT22;64862;54.398;10.126;2023-07-13T19:05:23;18.30;73.20
16968;DHT22;64862;54.398;10.126;2023-07-13T19:15:29;18.30;73.10
16968;DHT22;64862;54.398;10.126;2023-07-13T19:25:33;18.10;73.30
16968;DHT22;64862;54.398;10.126;2023-07-13T19:35:37;17.90;72.50
16968;DHT22;64862;54.398;10.126;2023-07-13T19:45:39;17.80;73.80
16968;DHT22;64862;54.398;10.126;2023-07-13T19:55:43;17.80;74.10
16968;DHT22;64862;54.398;10.126;2023-07-13T20:05:45;17.70;74.10
16968;DHT22;64862;54.398;10.126;2023-07-13T20:15:49;17.60;74.80
16968;DHT22;64862;54.398;10.126;2023-07-13T20:25:51;17.60;74.30
16968;DHT22;64862;54.398;10.126;2023-07-13T20:36:01;17.50;75.20
16968;DHT22;64862;54.398;10.126;2023-07-13T20:46:10;17.40;74.70
16968;DHT22;64862;54.398;10.126;2023-07-13T20:56:17;17.40;75.20
16968;DHT22;64862;54.398;10.126;2023-07-13T21:06:19;17.30;74.50
16968;DHT22;64862;54.398;10.126;2023-07-13T21:16:28;17.20;75.50
16968;DHT22;64862;54.398;10.126;2023-07-13T21:26:31;16.90;75.20
16968;DHT22;64862;54.398;10.126;2023-07-13T21:36:35;16.80;75.40
16968;DHT22;64862;54.398;10.126;2023-07-13T21:46:38;16.70;75.80
16968;DHT22;64862;54.398;10.126;2023-07-13T21:56:41;16.60;76.00
16968;DHT22;64862;54.398;10.126;2023-07-13T22:06:43;16.60;76.20
16968;DHT22;64862;54.398;10.126;2023-07-13T22:16:47;16.70;76.00
16968;DHT22;64862;54.398;10.126;2023-07-13T22:26:49;16.70;76.50
16968;DHT22;64862;54.398;10.126;2023-07-13T22:36:54;16.80;76.10
16968;DHT22;64862;54.398;10.126;2023-07-13T22:46:57;16.50;76.10
16968;DHT22;64862;54.398;10.126;2023-07-13T22:57:01;16.30;76.40
16968;DHT22;64862;54.398;10.126;2023-07-13T23:07:03;16.30;77.00
16968;DHT22;64862;54.398;10.126;2023-07-13T23:17:11;16.30;76.80
16968;DHT22;64862;54.398;10.126;2023-07-13T23:27:13;16.20;76.70
16968;DHT22;64862;54.398;10.126;2023-07-13T23:37:17;16.10;76.70
16968;DHT22;64862;54.398;10.126;2023-07-13T23:47:19;16.20;77.00
16968;DHT22;64862;54.398;10.126;2023-07-13T23:57:23;16.00;77.20
